sensor_id;sensor_type;location;lat;lon;timestamp;pressure;altitude;pressure_sealevel;temperature;humidity
55418;BME280;41287;47.554;7.844;2023-03-05T00:01:18;98348.75;;;16.65;57.14
55418;BME280;41287;47.554;7.844;2023-03-05T00:03:47;98353.03;;;16.66;57.03
55418;BME280;41287;47.554;7.844;2023-03-05T00:06:13;98340.31;;;16.66;57.08
55418;BME280;41287;47.554;7.844;2023-03-05T00:08:40;98353.84;;;16.66;56.89
55418;BME280;41287;47.554;7.844;2023-03-05T00:11:09;98352.25;;;16.65;57.10
55418;BME280;41287;47.554;7.844;2023-03-05T00:13:35;98344.91;;;16.66;56.97
55418;BME280;41287;47.554;7.844;2023-03-05T00:16:06;98346.81;;;16.65;57.11
55418;BME280;41287;47.554;7.844;2023-03-05T00:18:32;98342.22;;;16.66;56.94
55418;BME280;41287;47.554;7.844;2023-03-05T00:20:58;98339.50;;;16.66;57.11
55418;BME280;41287;47.554;7.844;2023-03-05T00:23:23;98334.91;;;16.66;57.01
55418;BME280;41287;47.554;7.844;2023-03-05T00:25:49;98347.63;;;16.66;56.96
55418;BME280;41287;47.554;7.844;2023-03-05T00:28:14;98341.09;;;16.67;56.95
55418;BME280;41287;47.554;7.844;2023-03-05T00:30:40;98339.19;;;16.67;56.97
55418;BME280;41287;47.554;7.844;2023-03-05T00:33:06;98343.81;;;16.67;57.09
55418;BME280;41287;47.554;7.844;2023-03-05T00:35:38;98336.81;;;16.66;57.16
55418;BME280;41287;47.554;7.844;2023-03-05T00:38:05;98342.22;;;16.66;57.02
55418;BME280;41287;47.554;7.844;2023-03-05T00:40:34;98338.41;;;16.67;57.13
55418;BME280;41287;47.554;7.844;2023-03-05T00:43:01;98344.63;;;16.67;57.02
55418;BME280;41287;47.554;7.844;2023-03-05T00:45:26;98343.81;;;16.67;56.81
55418;BME280;41287;47.554;7.844;2023-03-05T00:47:52;98328.38;;;16.67;57.16
55418;BME280;41287;47.554;7.844;2023-03-05T00:50:17;98322.16;;;16.67;57.00
55418;BME280;41287;47.554;7.844;2023-03-05T00:52:42;98324.88;;;16.67;57.05
55418;BME280;41287;47.554;7.844;2023-03-05T00:55:08;98326.78;;;16.66;57.11
55418;BME280;41287;47.554;7.844;2023-03-05T00:57:33;98319.47;;;16.67;57.26
55418;BME280;41287;47.554;7.844;2023-03-05T00:59:58;98318.66;;;16.66;57.16
55418;BME280;41287;47.554;7.844;2023-03-05T01:02:24;98305.94;;;16.67;57.10
55418;BME280;41287;47.554;7.844;2023-03-05T01:04:52;98307.84;;;16.66;57.13
55418;BME280;41287;47.554;7.844;2023-03-05T01:07:17;98308.66;;;16.67;57.09
55418;BME280;41287;47.554;7.844;2023-03-05T01:09:43;98295.13;;;16.67;57.16
55418;BME280;41287;47.554;7.844;2023-03-05T01:12:08;98295.13;;;16.67;57.15
55418;BME280;41287;47.554;7.844;2023-03-05T01:14:33;98297.81;;;16.67;57.19
55418;BME280;41287;47.554;7.844;2023-03-05T01:17:00;98296.22;;;16.66;57.26
55418;BME280;41287;47.554;7.844;2023-03-05T01:19:25;98287.81;;;16.67;57.05
55418;BME280;41287;47.554;7.844;2023-03-05T01:21:50;98278.88;;;16.67;57.07
55418;BME280;41287;47.554;7.844;2023-03-05T01:24:16;98284.28;;;16.67;57.23
55418;BME280;41287;47.554;7.844;2023-03-05T01:26:42;98282.38;;;16.67;57.18
55418;BME280;41287;47.554;7.844;2023-03-05T01:29:07;98279.69;;;16.67;57.17
55418;BME280;41287;47.554;7.844;2023-03-05T01:31:32;98281.59;;;16.67;57.10
55418;BME280;41287;47.554;7.844;2023-03-05T01:33:57;98274.28;;;16.67;57.18
55418;BME280;41287;47.554;7.844;2023-03-05T01:36:24;98269.66;;;16.68;57.16
55418;BME280;41287;47.554;7.844;2023-03-05T01:38:50;98271.56;;;16.67;56.96
55418;BME280;41287;47.554;7.844;2023-03-05T01:41:16;98270.75;;;16.67;57.12
55418;BME280;41287;47.554;7.844;2023-03-05T01:43:43;98262.66;;;16.67;57.10
55418;BME280;41287;47.554;7.844;2023-03-05T01:46:30;98252.94;;;16.66;57.33
55418;BME280;41287;47.554;7.844;2023-03-05T01:52:03;98258.34;;;16.66;57.27
55418;BME280;41287;47.554;7.844;2023-03-05T01:54:46;98257.25;;;16.67;57.12
55418;BME280;41287;47.554;7.844;2023-03-05T01:57:27;98255.63;;;16.66;57.01
55418;BME280;41287;47.554;7.844;2023-03-05T01:59:58;98250.22;;;16.66;57.22
55418;BME280;41287;47.554;7.844;2023-03-05T02:02:25;98249.13;;;16.67;57.19
55418;BME280;41287;47.554;7.844;2023-03-05T02:04:54;98249.13;;;16.67;57.25
55418;BME280;41287;47.554;7.844;2023-03-05T02:07:22;98242.91;;;16.66;57.25
55418;BME280;41287;47.554;7.844;2023-03-05T02:09:48;98241.00;;;16.67;57.26
55418;BME280;41287;47.554;7.844;2023-03-05T02:12:14;98239.41;;;16.66;57.13
55418;BME280;41287;47.554;7.844;2023-03-05T02:14:41;98234.00;;;16.66;57.25
55418;BME280;41287;47.554;7.844;2023-03-05T02:17:11;98230.19;;;16.67;57.29
55418;BME280;41287;47.554;7.844;2023-03-05T02:22:17;98230.19;;;16.67;57.35
55418;BME280;41287;47.554;7.844;2023-03-05T02:24:42;98228.28;;;16.67;57.10
55418;BME280;41287;47.554;7.844;2023-03-05T02:27:12;98230.97;;;16.67;57.26
55418;BME280;41287;47.554;7.844;2023-03-05T02:29:41;98224.78;;;16.67;57.20
55418;BME280;41287;47.554;7.844;2023-03-05T02:32:07;98220.47;;;16.66;57.24
55418;BME280;41287;47.554;7.844;2023-03-05T02:34:34;98227.47;;;16.67;57.35
55418;BME280;41287;47.554;7.844;2023-03-05T02:36:59;98228.28;;;16.67;57.29
55418;BME280;41287;47.554;7.844;2023-03-05T02:39:26;98220.16;;;16.67;57.35
55418;BME280;41287;47.554;7.844;2023-03-05T02:41:52;98213.94;;;16.67;57.18
55418;BME280;41287;47.554;7.844;2023-03-05T02:44:17;98208.53;;;16.67;57.29
55418;BME280;41287;47.554;7.844;2023-03-05T02:46:42;98213.94;;;16.67;57.23
55418;BME280;41287;47.554;7.844;2023-03-05T02:49:08;98210.44;;;16.66;56.90
55418;BME280;41287;47.554;7.844;2023-03-05T02:51:33;98209.34;;;16.67;57.25
55418;BME280;41287;47.554;7.844;2023-03-05T02:53:59;98201.22;;;16.67;57.24
55418;BME280;41287;47.554;7.844;2023-03-05T02:56:24;98200.41;;;16.67;57.11
55418;BME280;41287;47.554;7.844;2023-03-05T02:58:49;98200.41;;;16.67;57.24
55418;BME280;41287;47.554;7.844;2023-03-05T03:01:15;98196.13;;;16.66;57.34
55418;BME280;41287;47.554;7.844;2023-03-05T03:03:40;98197.72;;;16.67;57.24
55418;BME280;41287;47.554;7.844;2023-03-05T03:06:06;98205.03;;;16.66;57.24
55418;BME280;41287;47.554;7.844;2023-03-05T03:08:31;98205.84;;;16.67;57.19
55418;BME280;41287;47.554;7.844;2023-03-05T03:11:03;98194.22;;;16.66;57.35
55418;BME280;41287;47.554;7.844;2023-03-05T03:13:29;98195.81;;;16.67;57.18
55418;BME280;41287;47.554;7.844;2023-03-05T03:16:02;98190.41;;;16.67;57.31
55418;BME280;41287;47.554;7.844;2023-03-05T03:18:27;98191.19;;;16.68;57.56
55418;BME280;41287;47.554;7.844;2023-03-05T03:20:53;98188.50;;;16.68;57.08
55418;BME280;41287;47.554;7.844;2023-03-05T03:23:18;98193.91;;;16.68;57.22
55418;BME280;41287;47.554;7.844;2023-03-05T03:25:43;98192.31;;;16.67;57.35
55418;BME280;41287;47.554;7.844;2023-03-05T03:28:10;98179.56;;;16.67;57.29
55418;BME280;41287;47.554;7.844;2023-03-05T03:30:36;98176.06;;;16.67;57.23
55418;BME280;41287;47.554;7.844;2023-03-05T03:33:03;98179.56;;;16.67;57.23
55418;BME280;41287;47.554;7.844;2023-03-05T03:35:28;98178.78;;;16.67;57.34
55418;BME280;41287;47.554;7.844;2023-03-05T03:37:54;98169.06;;;16.66;57.36
55418;BME280;41287;47.554;7.844;2023-03-05T03:40:19;98167.16;;;16.66;57.21
55418;BME280;41287;47.554;7.844;2023-03-05T03:42:47;98164.13;;;16.68;57.25
55418;BME280;41287;47.554;7.844;2023-03-05T03:45:14;98166.06;;;16.67;57.27
55418;BME280;41287;47.554;7.844;2023-03-05T03:47:40;98170.34;;;16.68;57.31
55418;BME280;41287;47.554;7.844;2023-03-05T03:50:05;98165.25;;;16.67;57.34
55418;BME280;41287;47.554;7.844;2023-03-05T03:52:33;98156.03;;;16.68;57.33
55418;BME280;41287;47.554;7.844;2023-03-05T03:54:58;98157.13;;;16.67;57.07
55418;BME280;41287;47.554;7.844;2023-03-05T03:57:27;98153.31;;;16.68;57.38
55418;BME280;41287;47.554;7.844;2023-03-05T03:59:53;98149.03;;;16.67;57.41
55418;BME280;41287;47.554;7.844;2023-03-05T04:02:18;98149.03;;;16.67;57.20
55418;BME280;41287;47.554;7.844;2023-03-05T04:04:44;98149.81;;;16.67;57.31
55418;BME280;41287;47.554;7.844;2023-03-05T04:07:09;98150.13;;;16.66;57.21
55418;BME280;41287;47.554;7.844;2023-03-05T04:09:34;98152.53;;;16.67;57.26
55418;BME280;41287;47.554;7.844;2023-03-05T04:12:00;98150.63;;;16.68;57.30
55418;BME280;41287;47.554;7.844;2023-03-05T04:14:25;98144.41;;;16.67;57.29
55418;BME280;41287;47.554;7.844;2023-03-05T04:16:51;98144.41;;;16.67;57.11
55418;BME280;41287;47.554;7.844;2023-03-05T04:19:17;98146.31;;;16.67;57.39
55418;BME280;41287;47.554;7.844;2023-03-05T04:21:42;98150.13;;;16.66;57.36
55418;BME280;41287;47.554;7.844;2023-03-05T04:24:09;98147.13;;;16.67;57.25
55418;BME280;41287;47.554;7.844;2023-03-05T04:26:35;98140.91;;;16.67;57.31
55418;BME280;41287;47.554;7.844;2023-03-05T04:29:00;98146.31;;;16.67;57.40
55418;BME280;41287;47.554;7.844;2023-03-05T04:31:25;98142.50;;;16.68;57.42
55418;BME280;41287;47.554;7.844;2023-03-05T04:33:51;98139.78;;;16.68;57.25
55418;BME280;41287;47.554;7.844;2023-03-05T04:36:19;98140.09;;;16.66;57.21
55418;BME280;41287;47.554;7.844;2023-03-05T04:38:46;98135.50;;;16.67;57.32
55418;BME280;41287;47.554;7.844;2023-03-05T04:41:11;98138.19;;;16.67;57.29
55418;BME280;41287;47.554;7.844;2023-03-05T04:43:37;98136.28;;;16.67;57.25
55418;BME280;41287;47.554;7.844;2023-03-05T04:46:03;98134.38;;;16.68;57.37
55418;BME280;41287;47.554;7.844;2023-03-05T04:48:28;98131.19;;;16.66;57.42
55418;BME280;41287;47.554;7.844;2023-03-05T04:50:53;98129.28;;;16.66;57.38
55418;BME280;41287;47.554;7.844;2023-03-05T04:53:19;98127.38;;;16.67;57.32
55418;BME280;41287;47.554;7.844;2023-03-05T04:55:44;98127.38;;;16.67;57.35
55418;BME280;41287;47.554;7.844;2023-03-05T04:58:10;98130.09;;;16.67;57.36
55418;BME280;41287;47.554;7.844;2023-03-05T05:00:35;98124.66;;;16.67;57.40
55418;BME280;41287;47.554;7.844;2023-03-05T05:03:00;98120.38;;;16.66;57.35
55418;BME280;41287;47.554;7.844;2023-03-05T05:05:26;98119.25;;;16.67;57.46
55418;BME280;41287;47.554;7.844;2023-03-05T05:07:54;98111.94;;;16.67;57.29
55418;BME280;41287;47.554;7.844;2023-03-05T05:10:20;98104.94;;;16.66;57.41
55418;BME280;41287;47.554;7.844;2023-03-05T05:12:46;98104.13;;;16.66;57.35
55418;BME280;41287;47.554;7.844;2023-03-05T05:15:11;98103.03;;;16.67;57.29
55418;BME280;41287;47.554;7.844;2023-03-05T05:17:37;98102.22;;;16.66;57.28
55418;BME280;41287;47.554;7.844;2023-03-05T05:20:04;98098.72;;;16.66;57.39
55418;BME280;41287;47.554;7.844;2023-03-05T05:22:31;98093.31;;;16.66;57.67
55418;BME280;41287;47.554;7.844;2023-03-05T05:24:56;98092.53;;;16.65;57.36
55418;BME280;41287;47.554;7.844;2023-03-05T05:27:23;98101.91;;;16.68;57.16
55418;BME280;41287;47.554;7.844;2023-03-05T05:29:48;98100.63;;;16.65;57.48
55418;BME280;41287;47.554;7.844;2023-03-05T05:32:16;98093.31;;;16.66;57.46
55418;BME280;41287;47.554;7.844;2023-03-05T05:34:41;98092.22;;;16.67;57.39
55418;BME280;41287;47.554;7.844;2023-03-05T05:37:06;98097.63;;;16.67;57.28
55418;BME280;41287;47.554;7.844;2023-03-05T05:39:34;98092.53;;;16.65;57.32
55418;BME280;41287;47.554;7.844;2023-03-05T05:41:59;98092.22;;;16.67;57.33
55418;BME280;41287;47.554;7.844;2023-03-05T05:44:24;98097.63;;;16.67;57.31
55418;BME280;41287;47.554;7.844;2023-03-05T05:46:50;98101.13;;;16.67;57.57
55418;BME280;41287;47.554;7.844;2023-03-05T05:49:15;98101.13;;;16.67;57.40
55418;BME280;41287;47.554;7.844;2023-03-05T05:51:40;98103.03;;;16.67;57.27
55418;BME280;41287;47.554;7.844;2023-03-05T05:54:06;98092.22;;;16.67;57.44
55418;BME280;41287;47.554;7.844;2023-03-05T05:56:31;98094.13;;;16.66;57.34
55418;BME280;41287;47.554;7.844;2023-03-05T05:58:58;98091.41;;;16.66;57.40
55418;BME280;41287;47.554;7.844;2023-03-05T06:01:29;98091.41;;;16.66;57.47
55418;BME280;41287;47.554;7.844;2023-03-05T06:03:56;98091.41;;;16.66;57.32
55418;BME280;41287;47.554;7.844;2023-03-05T06:06:23;98097.63;;;16.67;57.29
55418;BME280;41287;47.554;7.844;2023-03-05T06:08:50;98091.41;;;16.66;57.42
55418;BME280;41287;47.554;7.844;2023-03-05T06:11:16;98092.53;;;16.65;57.24
55418;BME280;41287;47.554;7.844;2023-03-05T06:13:43;98086.34;;;16.65;57.04
55418;BME280;41287;47.554;7.844;2023-03-05T06:16:15;98092.53;;;16.65;56.91
55418;BME280;41287;47.554;7.844;2023-03-05T06:18:41;98086.34;;;16.65;57.11
55418;BME280;41287;47.554;7.844;2023-03-05T06:21:09;98089.81;;;16.65;56.99
55418;BME280;41287;47.554;7.844;2023-03-05T06:23:35;98091.75;;;16.65;56.95
55418;BME280;41287;47.554;7.844;2023-03-05T06:26:04;98082.03;;;16.64;56.96
55418;BME280;41287;47.554;7.844;2023-03-05T06:28:30;98096.69;;;16.63;56.17
55418;BME280;41287;47.554;7.844;2023-03-05T06:31:04;98083.16;;;16.63;55.67
55418;BME280;41287;47.554;7.844;2023-03-05T06:33:29;98080.75;;;16.61;55.64
55418;BME280;41287;47.554;7.844;2023-03-05T06:35:55;98068.50;;;16.64;55.57
55418;BME280;41287;47.554;7.844;2023-03-05T06:38:21;98079.66;;;16.62;55.61
55418;BME280;41287;47.554;7.844;2023-03-05T06:40:46;98080.44;;;16.63;55.83
55418;BME280;41287;47.554;7.844;2023-03-05T06:43:12;98083.94;;;16.63;55.79
55418;BME280;41287;47.554;7.844;2023-03-05T06:45:37;98082.34;;;16.62;55.84
55418;BME280;41287;47.554;7.844;2023-03-05T06:48:02;98089.34;;;16.63;56.02
55418;BME280;41287;47.554;7.844;2023-03-05T06:50:28;98092.38;;;16.62;55.98
55418;BME280;41287;47.554;7.844;2023-03-05T06:52:53;98092.38;;;16.62;56.02
55418;BME280;41287;47.554;7.844;2023-03-05T06:55:19;98082.34;;;16.62;56.20
55418;BME280;41287;47.554;7.844;2023-03-05T06:57:44;98076.63;;;16.64;56.28
55418;BME280;41287;47.554;7.844;2023-03-05T07:00:10;98087.44;;;16.64;56.71
55418;BME280;41287;47.554;7.844;2023-03-05T07:02:36;98079.47;;;16.67;57.03
55418;BME280;41287;47.554;7.844;2023-03-05T07:05:03;98082.00;;;16.72;57.26
55418;BME280;41287;47.554;7.844;2023-03-05T07:07:28;98086.00;;;16.75;58.17
55418;BME280;41287;47.554;7.844;2023-03-05T07:09:54;98082.66;;;16.78;59.35
55418;BME280;41287;47.554;7.844;2023-03-05T07:12:19;98077.06;;;16.83;60.55
55418;BME280;41287;47.554;7.844;2023-03-05T07:14:45;98074.84;;;16.85;61.39
55418;BME280;41287;47.554;7.844;2023-03-05T07:17:10;98080.41;;;16.88;62.10
55418;BME280;41287;47.554;7.844;2023-03-05T07:19:36;98080.56;;;16.92;63.52
55418;BME280;41287;47.554;7.844;2023-03-05T07:22:02;98076.41;;;16.94;63.95
55418;BME280;41287;47.554;7.844;2023-03-05T07:24:27;98070.34;;;16.97;65.07
55418;BME280;41287;47.554;7.844;2023-03-05T07:26:58;98071.59;;;17.00;66.62
55418;BME280;41287;47.554;7.844;2023-03-05T07:29:25;98065.56;;;17.03;66.90
55418;BME280;41287;47.554;7.844;2023-03-05T07:31:51;98064.91;;;17.06;67.68
55418;BME280;41287;47.554;7.844;2023-03-05T07:34:17;98077.31;;;17.07;67.01
55418;BME280;41287;47.554;7.844;2023-03-05T07:36:42;98071.09;;;17.07;67.11
55418;BME280;41287;47.554;7.844;2023-03-05T07:39:09;98073.00;;;17.06;67.65
55418;BME280;41287;47.554;7.844;2023-03-05T07:41:35;98071.09;;;17.07;67.84
55418;BME280;41287;47.554;7.844;2023-03-05T07:44:00;98070.78;;;17.08;68.78
55418;BME280;41287;47.554;7.844;2023-03-05T07:46:29;98066.16;;;17.09;69.26
55418;BME280;41287;47.554;7.844;2023-03-05T07:48:55;98068.56;;;17.10;70.00
55418;BME280;41287;47.554;7.844;2023-03-05T07:51:21;98060.91;;;17.12;70.62
55418;BME280;41287;47.554;7.844;2023-03-05T07:53:50;98064.88;;;17.15;71.51
55418;BME280;41287;47.554;7.844;2023-03-05T07:56:35;98060.72;;;17.17;72.05
55418;BME280;41287;47.554;7.844;2023-03-05T07:59:09;98061.38;;;17.14;68.04
55418;BME280;41287;47.554;7.844;2023-03-05T08:01:35;98058.84;;;17.09;66.36
55418;BME280;41287;47.554;7.844;2023-03-05T08:04:01;98063.66;;;17.04;65.32
55418;BME280;41287;47.554;7.844;2023-03-05T08:06:27;98055.72;;;16.98;63.13
55418;BME280;41287;47.554;7.844;2023-03-05T08:08:52;98062.56;;;16.96;61.13
55418;BME280;41287;47.554;7.844;2023-03-05T08:11:18;98054.63;;;16.91;60.93
55418;BME280;41287;47.554;7.844;2023-03-05T08:13:43;98051.75;;;16.87;60.29
55418;BME280;41287;47.554;7.844;2023-03-05T08:16:17;98057.03;;;16.67;48.32
55418;BME280;41287;47.554;7.844;2023-03-05T08:18:45;98053.84;;;16.39;44.61
55418;BME280;41287;47.554;7.844;2023-03-05T08:21:19;98046.22;;;16.06;42.58
55418;BME280;41287;47.554;7.844;2023-03-05T08:23:45;98043.50;;;15.80;42.22
55418;BME280;41287;47.554;7.844;2023-03-05T08:26:12;98049.19;;;15.70;45.21
55418;BME280;41287;47.554;7.844;2023-03-05T08:28:38;98039.03;;;15.67;45.39
55418;BME280;41287;47.554;7.844;2023-03-05T08:31:08;98036.50;;;15.62;48.19
55418;BME280;41287;47.554;7.844;2023-03-05T08:33:34;98032.84;;;15.67;45.76
55418;BME280;41287;47.554;7.844;2023-03-05T08:35:59;98034.75;;;15.66;46.94
55418;BME280;41287;47.554;7.844;2023-03-05T08:38:24;98032.03;;;15.66;48.93
55418;BME280;41287;47.554;7.844;2023-03-05T08:40:53;98031.72;;;15.68;49.26
55418;BME280;41287;47.554;7.844;2023-03-05T08:43:18;98026.78;;;15.70;49.34
55418;BME280;41287;47.554;7.844;2023-03-05T08:45:43;98030.78;;;15.72;48.89
55418;BME280;41287;47.554;7.844;2023-03-05T08:48:09;98027.47;;;15.75;49.04
55418;BME280;41287;47.554;7.844;2023-03-05T08:50:35;98025.06;;;15.74;47.27
55418;BME280;41287;47.554;7.844;2023-03-05T08:53:01;98021.38;;;15.70;47.16
55418;BME280;41287;47.554;7.844;2023-03-05T08:55:26;98022.03;;;15.67;49.83
55418;BME280;41287;47.554;7.844;2023-03-05T08:57:52;98014.41;;;15.69;49.43
55418;BME280;41287;47.554;7.844;2023-03-05T09:00:17;98013.28;;;15.70;49.62
55418;BME280;41287;47.554;7.844;2023-03-05T09:02:43;98003.28;;;15.70;49.25
55418;BME280;41287;47.554;7.844;2023-03-05T09:05:10;97998.38;;;15.72;49.52
55418;BME280;41287;47.554;7.844;2023-03-05T09:07:36;97998.84;;;15.74;49.54
55418;BME280;41287;47.554;7.844;2023-03-05T09:10:03;98002.81;;;15.77;49.91
55418;BME280;41287;47.554;7.844;2023-03-05T09:12:29;98003.28;;;15.79;50.21
55418;BME280;41287;47.554;7.844;2023-03-05T09:14:54;97991.06;;;15.82;50.61
55418;BME280;41287;47.554;7.844;2023-03-05T09:17:21;97999.31;;;15.85;50.69
55418;BME280;41287;47.554;7.844;2023-03-05T09:19:46;97990.09;;;15.86;51.07
55418;BME280;41287;47.554;7.844;2023-03-05T09:22:12;97989.00;;;15.87;51.68
55418;BME280;41287;47.554;7.844;2023-03-05T09:24:37;97982.50;;;15.88;51.55
55418;BME280;41287;47.554;7.844;2023-03-05T09:27:02;97982.19;;;15.90;51.84
55418;BME280;41287;47.554;7.844;2023-03-05T09:29:28;97987.25;;;15.91;51.98
55418;BME280;41287;47.554;7.844;2023-03-05T09:31:55;97985.34;;;15.92;51.76
55418;BME280;41287;47.554;7.844;2023-03-05T09:34:21;97973.41;;;15.93;52.46
55418;BME280;41287;47.554;7.844;2023-03-05T09:36:47;97966.13;;;15.93;52.66
55418;BME280;41287;47.554;7.844;2023-03-05T09:39:12;97975.50;;;15.96;52.74
55418;BME280;41287;47.554;7.844;2023-03-05T09:42:19;97961.19;;;15.95;53.02
55418;BME280;41287;47.554;7.844;2023-03-05T09:47:49;97958.94;;;15.97;53.32
55418;BME280;41287;47.554;7.844;2023-03-05T09:50:40;97953.22;;;15.99;53.46
55418;BME280;41287;47.554;7.844;2023-03-05T09:56:04;97948.63;;;15.99;53.57
55418;BME280;41287;47.554;7.844;2023-03-05T09:58:37;97950.22;;;16.00;53.89
55418;BME280;41287;47.554;7.844;2023-03-05T10:06:31;97934.00;;;16.00;53.97
55418;BME280;41287;47.554;7.844;2023-03-05T10:11:48;97929.41;;;16.01;54.33
55418;BME280;41287;47.554;7.844;2023-03-05T10:14:25;97922.06;;;16.01;54.29
55418;BME280;41287;47.554;7.844;2023-03-05T10:16:59;97918.59;;;16.01;54.38
55418;BME280;41287;47.554;7.844;2023-03-05T10:25:25;97923.31;;;16.04;54.46
55418;BME280;41287;47.554;7.844;2023-03-05T10:27:57;97917.94;;;16.04;54.57
55418;BME280;41287;47.554;7.844;2023-03-05T10:30:48;97917.94;;;16.04;54.77
55418;BME280;41287;47.554;7.844;2023-03-05T10:38:22;97906.81;;;16.05;54.79
55418;BME280;41287;47.554;7.844;2023-03-05T10:40:59;97905.69;;;16.06;54.88
55418;BME280;41287;47.554;7.844;2023-03-05T10:43:41;97901.41;;;16.05;54.90
55418;BME280;41287;47.554;7.844;2023-03-05T10:46:20;97903.00;;;16.06;54.92
55418;BME280;41287;47.554;7.844;2023-03-05T10:48:52;97894.09;;;16.06;54.93
55418;BME280;41287;47.554;7.844;2023-03-05T10:53:54;97891.06;;;16.07;55.01
55418;BME280;41287;47.554;7.844;2023-03-05T10:56:23;97888.03;;;16.09;55.11
55418;BME280;41287;47.554;7.844;2023-03-05T10:58:49;97878.84;;;16.10;55.08
55418;BME280;41287;47.554;7.844;2023-03-05T11:06:12;97865.31;;;16.10;55.19
55418;BME280;41287;47.554;7.844;2023-03-05T11:08:38;97859.91;;;16.10;55.32
55418;BME280;41287;47.554;7.844;2023-03-05T11:11:14;97858.78;;;16.11;55.26
55418;BME280;41287;47.554;7.844;2023-03-05T11:13:53;97863.06;;;16.12;55.53
55418;BME280;41287;47.554;7.844;2023-03-05T11:16:23;97854.16;;;16.11;55.51
55418;BME280;41287;47.554;7.844;2023-03-05T11:18:49;97853.06;;;16.12;55.65
55418;BME280;41287;47.554;7.844;2023-03-05T11:21:23;97845.25;;;16.11;55.57
55418;BME280;41287;47.554;7.844;2023-03-05T11:24:17;97846.84;;;16.12;55.65
55418;BME280;41287;47.554;7.844;2023-03-05T11:26:50;97843.03;;;16.13;55.64
55418;BME280;41287;47.554;7.844;2023-03-05T11:29:20;97840.34;;;16.13;55.64
55418;BME280;41287;47.554;7.844;2023-03-05T11:31:46;97834.59;;;16.14;55.68
55418;BME280;41287;47.554;7.844;2023-03-05T11:36:58;97833.00;;;16.13;55.67
55418;BME280;41287;47.554;7.844;2023-03-05T11:39:28;97832.69;;;16.15;55.73
55418;BME280;41287;47.554;7.844;2023-03-05T11:42:06;97832.69;;;16.15;55.70
55418;BME280;41287;47.554;7.844;2023-03-05T11:50:28;97808.06;;;16.16;55.79
55418;BME280;41287;47.554;7.844;2023-03-05T11:53:01;97804.56;;;16.16;55.81
55418;BME280;41287;47.554;7.844;2023-03-05T11:55:38;97801.84;;;16.16;55.96
55418;BME280;41287;47.554;7.844;2023-03-05T11:58:30;97799.94;;;16.16;55.90
55418;BME280;41287;47.554;7.844;2023-03-05T12:00:57;97799.59;;;16.18;55.90
55418;BME280;41287;47.554;7.844;2023-03-05T12:03:28;97796.91;;;16.18;55.91
55418;BME280;41287;47.554;7.844;2023-03-05T12:05:59;97791.50;;;16.18;55.91
55418;BME280;41287;47.554;7.844;2023-03-05T12:08:31;97786.09;;;16.18;55.94
55418;BME280;41287;47.554;7.844;2023-03-05T12:11:00;97782.28;;;16.19;56.06
55418;BME280;41287;47.554;7.844;2023-03-05T12:13:42;97777.97;;;16.18;56.16
55418;BME280;41287;47.554;7.844;2023-03-05T12:16:19;97770.66;;;16.18;56.09
55418;BME280;41287;47.554;7.844;2023-03-05T12:19:00;97766.84;;;16.19;56.03
55418;BME280;41287;47.554;7.844;2023-03-05T12:21:39;97757.63;;;16.20;56.05
55418;BME280;41287;47.554;7.844;2023-03-05T12:31:53;97745.69;;;16.22;56.03
55418;BME280;41287;47.554;7.844;2023-03-05T12:39:50;97729.16;;;16.23;56.03
55418;BME280;41287;47.554;7.844;2023-03-05T12:47:46;97722.59;;;16.24;56.24
55418;BME280;41287;47.554;7.844;2023-03-05T12:52:53;97715.28;;;16.25;56.07
55418;BME280;41287;47.554;7.844;2023-03-05T13:01:03;97696.38;;;16.25;56.27
55418;BME280;41287;47.554;7.844;2023-03-05T13:03:36;97690.97;;;16.25;56.22
55418;BME280;41287;47.554;7.844;2023-03-05T13:06:03;97688.72;;;16.27;56.28
55418;BME280;41287;47.554;7.844;2023-03-05T13:08:32;97686.81;;;16.27;55.88
55418;BME280;41287;47.554;7.844;2023-03-05T13:11:02;97686.81;;;16.27;56.32
55418;BME280;41287;47.554;7.844;2023-03-05T13:13:31;97692.22;;;16.27;56.32
55418;BME280;41287;47.554;7.844;2023-03-05T13:15:59;97689.53;;;16.27;56.24
55418;BME280;41287;47.554;7.844;2023-03-05T13:18:26;97688.72;;;16.27;56.32
55418;BME280;41287;47.554;7.844;2023-03-05T13:21:00;97681.41;;;16.27;56.20
55418;BME280;41287;47.554;7.844;2023-03-05T13:23:26;97676.47;;;16.29;56.48
55418;BME280;41287;47.554;7.844;2023-03-05T13:26:10;97675.69;;;16.29;56.38
55418;BME280;41287;47.554;7.844;2023-03-05T13:28:36;97670.28;;;16.29;56.29
55418;BME280;41287;47.554;7.844;2023-03-05T13:31:12;97672.19;;;16.28;56.28
55418;BME280;41287;47.554;7.844;2023-03-05T13:33:38;97661.84;;;16.30;56.25
55418;BME280;41287;47.554;7.844;2023-03-05T13:36:05;97664.56;;;16.30;56.21
55418;BME280;41287;47.554;7.844;2023-03-05T13:38:38;97657.56;;;16.29;56.26
55418;BME280;41287;47.554;7.844;2023-03-05T13:41:18;97662.16;;;16.29;56.25
55418;BME280;41287;47.554;7.844;2023-03-05T13:43:50;97659.16;;;16.30;56.27
55418;BME280;41287;47.554;7.844;2023-03-05T13:48:53;97659.16;;;16.30;56.37
55418;BME280;41287;47.554;7.844;2023-03-05T13:51:19;97658.78;;;16.32;56.41
55418;BME280;41287;47.554;7.844;2023-03-05T13:53:44;97653.38;;;16.32;56.27
55418;BME280;41287;47.554;7.844;2023-03-05T13:56:17;97646.44;;;16.31;56.34
55418;BME280;41287;47.554;7.844;2023-03-05T13:58:54;97658.00;;;16.31;56.33
55418;BME280;41287;47.554;7.844;2023-03-05T14:01:32;97652.59;;;16.31;56.49
55418;BME280;41287;47.554;7.844;2023-03-05T14:04:17;97645.28;;;16.32;56.48
55418;BME280;41287;47.554;7.844;2023-03-05T14:09:44;97637.16;;;16.32;56.30
55418;BME280;41287;47.554;7.844;2023-03-05T14:12:40;97643.72;;;16.31;56.54
55418;BME280;41287;47.554;7.844;2023-03-05T14:15:23;97628.25;;;16.31;56.66
55418;BME280;41287;47.554;7.844;2023-03-05T14:17:49;97632.56;;;16.32;56.41
55418;BME280;41287;47.554;7.844;2023-03-05T14:20:20;97636.06;;;16.33;56.45
55418;BME280;41287;47.554;7.844;2023-03-05T14:22:48;97619.81;;;16.33;56.48
55418;BME280;41287;47.554;7.844;2023-03-05T14:27:55;97619.03;;;16.32;56.50